sensor_id;sensor_type;location;lat;lon;timestamp;P1;durP1;ratioP1;P2;durP2;ratioP2
7348;SDS011;13010;-33.424;-70.614;2023-04-01T00:01:59;114.05;;;110.25;;
7348;SDS011;13010;-33.424;-70.614;2023-04-01T00:04:48;105.97;;;102.43;;
7348;SDS011;13010;-33.424;-70.614;2023-04-01T00:07:36;116.13;;;112.28;;
7348;SDS011;13010;-33.424;-70.614;2023-04-01T00:10:27;124.93;;;120.82;;
7348;SDS011;13010;-33.424;-70.614;2023-04-01T00:13:16;111.18;;;107.47;;
7348;SDS011;13010;-33.424;-70.614;2023-04-01T00:16:05;116.70;;;112.82;;
7348;SDS011;13010;-33.424;-70.614;2023-04-01T00:18:55;107.35;;;103.78;;
7348;SDS011;13010;-33.424;-70.614;2023-04-01T00:21:44;109.07;;;105.40;;
7348;SDS011;13010;-33.424;-70.614;2023-04-01T00:24:32;119.25;;;115.30;;
7348;SDS011;13010;-33.424;-70.614;2023-04-01T00:27:23;104.68;;;101.20;;
7348;SDS011;13010;-33.424;-70.614;2023-04-01T00:30:16;107.68;;;104.10;;
7348;SDS011;13010;-33.424;-70.614;2023-04-01T00:33:05;110.43;;;106.78;;
7348;SDS011;13010;-33.424;-70.614;2023-04-01T00:35:54;109.78;;;106.07;;
7348;SDS011;13010;-33.424;-70.614;2023-04-01T00:38:44;118.85;;;114.95;;
7348;SDS011;13010;-33.424;-70.614;2023-04-01T00:41:33;99.30;;;95.97;;
7348;SDS011;13010;-33.424;-70.614;2023-04-01T00:44:25;115.53;;;111.68;;
7348;SDS011;13010;-33.424;-70.614;2023-04-01T00:47:15;121.88;;;117.88;;
7348;SDS011;13010;-33.424;-70.614;2023-04-01T00:50:05;109.35;;;105.70;;
7348;SDS011;13010;-33.424;-70.614;2023-04-01T00:52:55;106.45;;;102.88;;
7348;SDS011;13010;-33.424;-70.614;2023-04-01T00:55:47;120.57;;;116.53;;
7348;SDS011;13010;-33.424;-70.614;2023-04-01T00:58:40;109.15;;;105.47;;
7348;SDS011;13010;-33.424;-70.614;2023-04-01T01:01:32;109.93;;;106.25;;
7348;SDS011;13010;-33.424;-70.614;2023-04-01T01:04:23;103.05;;;99.60;;
7348;SDS011;13010;-33.424;-70.614;2023-04-01T01:07:16;99.93;;;96.53;;
7348;SDS011;13010;-33.424;-70.614;2023-04-01T01:10:13;104.13;;;100.55;;
7348;SDS011;13010;-33.424;-70.614;2023-04-01T01:13:07;107.50;;;103.88;;
7348;SDS011;13010;-33.424;-70.614;2023-04-01T01:16:04;106.90;;;103.25;;
7348;SDS011;13010;-33.424;-70.614;2023-04-01T01:19:04;110.43;;;106.78;;
7348;SDS011;13010;-33.424;-70.614;2023-04-01T01:22:12;106.80;;;103.22;;
7348;SDS011;13010;-33.424;-70.614;2023-04-01T01:25:30;107.07;;;103.47;;
7348;SDS011;13010;-33.424;-70.614;2023-04-01T01:28:31;103.50;;;100.00;;
7348;SDS011;13010;-33.424;-70.614;2023-04-01T01:31:32;102.50;;;99.00;;
7348;SDS011;13010;-33.424;-70.614;2023-04-01T01:34:24;97.28;;;94.00;;
7348;SDS011;13010;-33.424;-70.614;2023-04-01T01:37:25;99.38;;;96.00;;
7348;SDS011;13010;-33.424;-70.614;2023-04-01T01:40:17;102.18;;;98.72;;
7348;SDS011;13010;-33.424;-70.614;2023-04-01T01:43:08;108.15;;;104.47;;
7348;SDS011;13010;-33.424;-70.614;2023-04-01T01:45:59;99.68;;;96.30;;
7348;SDS011;13010;-33.424;-70.614;2023-04-01T01:48:55;98.63;;;95.25;;
7348;SDS011;13010;-33.424;-70.614;2023-04-01T01:51:46;100.60;;;97.20;;
7348;SDS011;13010;-33.424;-70.614;2023-04-01T01:54:46;99.47;;;96.10;;
7348;SDS011;13010;-33.424;-70.614;2023-04-01T01:57:36;103.30;;;99.82;;
7348;SDS011;13010;-33.424;-70.614;2023-04-01T02:00:27;104.68;;;101.13;;
7348;SDS011;13010;-33.424;-70.614;2023-04-01T02:03:16;98.07;;;94.72;;
7348;SDS011;13010;-33.424;-70.614;2023-04-01T02:06:07;95.00;;;91.72;;
7348;SDS011;13010;-33.424;-70.614;2023-04-01T02:08:58;97.68;;;94.35;;
7348;SDS011;13010;-33.424;-70.614;2023-04-01T02:11:52;96.63;;;93.32;;
7348;SDS011;13010;-33.424;-70.614;2023-04-01T02:14:44;96.55;;;93.25;;
7348;SDS011;13010;-33.424;-70.614;2023-04-01T02:17:38;92.78;;;89.55;;
7348;SDS011;13010;-33.424;-70.614;2023-04-01T02:20:30;80.28;;;77.43;;
7348;SDS011;13010;-33.424;-70.614;2023-04-01T02:23:20;86.50;;;83.47;;
7348;SDS011;13010;-33.424;-70.614;2023-04-01T02:26:10;87.47;;;84.47;;
7348;SDS011;13010;-33.424;-70.614;2023-04-01T02:29:02;95.72;;;92.43;;
7348;SDS011;13010;-33.424;-70.614;2023-04-01T02:31:53;100.72;;;97.28;;
7348;SDS011;13010;-33.424;-70.614;2023-04-01T02:34:42;98.45;;;95.05;;
7348;SDS011;13010;-33.424;-70.614;2023-04-01T02:37:32;91.15;;;88.03;;
7348;SDS011;13010;-33.424;-70.614;2023-04-01T02:40:21;92.93;;;89.72;;
7348;SDS011;13010;-33.424;-70.614;2023-04-01T02:43:10;90.25;;;87.15;;
7348;SDS011;13010;-33.424;-70.614;2023-04-01T02:46:01;88.45;;;85.38;;
7348;SDS011;13010;-33.424;-70.614;2023-04-01T02:48:50;91.47;;;88.32;;
7348;SDS011;13010;-33.424;-70.614;2023-04-01T02:51:40;83.95;;;81.03;;
7348;SDS011;13010;-33.424;-70.614;2023-04-01T02:54:32;85.10;;;82.13;;
7348;SDS011;13010;-33.424;-70.614;2023-04-01T02:57:21;90.20;;;87.07;;
7348;SDS011;13010;-33.424;-70.614;2023-04-01T03:00:10;92.60;;;89.40;;
7348;SDS011;13010;-33.424;-70.614;2023-04-01T03:03:02;96.97;;;93.63;;
7348;SDS011;13010;-33.424;-70.614;2023-04-01T03:05:51;87.97;;;84.88;;
7348;SDS011;13010;-33.424;-70.614;2023-04-01T03:08:40;87.97;;;84.88;;
7348;SDS011;13010;-33.424;-70.614;2023-04-01T03:11:29;92.78;;;89.55;;
7348;SDS011;13010;-33.424;-70.614;2023-04-01T03:14:18;89.15;;;86.03;;
7348;SDS011;13010;-33.424;-70.614;2023-04-01T03:17:07;88.07;;;85.00;;
7348;SDS011;13010;-33.424;-70.614;2023-04-01T03:19:58;85.05;;;82.07;;
7348;SDS011;13010;-33.424;-70.614;2023-04-01T03:22:49;92.63;;;89.43;;
7348;SDS011;13010;-33.424;-70.614;2023-04-01T03:25:38;76.32;;;73.63;;
7348;SDS011;13010;-33.424;-70.614;2023-04-01T03:28:27;73.90;;;71.28;;
7348;SDS011;13010;-33.424;-70.614;2023-04-01T03:31:16;81.07;;;78.22;;
7348;SDS011;13010;-33.424;-70.614;2023-04-01T03:34:06;95.13;;;91.82;;
7348;SDS011;13010;-33.424;-70.614;2023-04-01T03:36:57;88.22;;;85.15;;
7348;SDS011;13010;-33.424;-70.614;2023-04-01T03:39:47;81.43;;;78.50;;
7348;SDS011;13010;-33.424;-70.614;2023-04-01T03:42:36;85.15;;;82.10;;
7348;SDS011;13010;-33.424;-70.614;2023-04-01T03:45:25;75.80;;;73.07;;
7348;SDS011;13010;-33.424;-70.614;2023-04-01T03:48:14;77.40;;;74.65;;
7348;SDS011;13010;-33.424;-70.614;2023-04-01T03:51:06;75.57;;;72.80;;
7348;SDS011;13010;-33.424;-70.614;2023-04-01T03:53:57;79.00;;;76.20;;
7348;SDS011;13010;-33.424;-70.614;2023-04-01T03:56:46;86.32;;;83.30;;
7348;SDS011;13010;-33.424;-70.614;2023-04-01T03:59:35;70.22;;;67.70;;
7348;SDS011;13010;-33.424;-70.614;2023-04-01T04:02:24;74.90;;;72.20;;
7348;SDS011;13010;-33.424;-70.614;2023-04-01T04:05:13;79.32;;;76.50;;
7348;SDS011;13010;-33.424;-70.614;2023-04-01T04:08:03;98.13;;;94.75;;
7348;SDS011;13010;-33.424;-70.614;2023-04-01T04:10:56;72.45;;;69.85;;
7348;SDS011;13010;-33.424;-70.614;2023-04-01T04:13:48;69.75;;;67.15;;
7348;SDS011;13010;-33.424;-70.614;2023-04-01T04:16:37;77.85;;;75.05;;
7348;SDS011;13010;-33.424;-70.614;2023-04-01T04:19:26;75.63;;;72.93;;
7348;SDS011;13010;-33.424;-70.614;2023-04-01T04:22:18;78.68;;;75.88;;
7348;SDS011;13010;-33.424;-70.614;2023-04-01T04:25:07;77.93;;;75.13;;
7348;SDS011;13010;-33.424;-70.614;2023-04-01T04:27:58;84.55;;;81.57;;
7348;SDS011;13010;-33.424;-70.614;2023-04-01T04:30:47;81.00;;;78.15;;
7348;SDS011;13010;-33.424;-70.614;2023-04-01T04:33:35;82.47;;;79.53;;
7348;SDS011;13010;-33.424;-70.614;2023-04-01T04:36:24;88.28;;;85.20;;
7348;SDS011;13010;-33.424;-70.614;2023-04-01T04:39:13;87.38;;;84.32;;
7348;SDS011;13010;-33.424;-70.614;2023-04-01T04:42:05;75.07;;;72.38;;
7348;SDS011;13010;-33.424;-70.614;2023-04-01T04:44:56;78.05;;;75.25;;
7348;SDS011;13010;-33.424;-70.614;2023-04-01T04:47:45;71.78;;;69.15;;
7348;SDS011;13010;-33.424;-70.614;2023-04-01T04:50:34;66.60;;;64.20;;
7348;SDS011;13010;-33.424;-70.614;2023-04-01T04:53:23;75.30;;;72.57;;
7348;SDS011;13010;-33.424;-70.614;2023-04-01T04:56:11;68.72;;;66.22;;
7348;SDS011;13010;-33.424;-70.614;2023-04-01T04:59:04;70.00;;;67.45;;
7348;SDS011;13010;-33.424;-70.614;2023-04-01T05:01:55;65.03;;;62.67;;
7348;SDS011;13010;-33.424;-70.614;2023-04-01T05:04:44;62.83;;;60.53;;
7348;SDS011;13010;-33.424;-70.614;2023-04-01T05:07:33;76.88;;;74.10;;
7348;SDS011;13010;-33.424;-70.614;2023-04-01T05:10:22;65.75;;;63.35;;
7348;SDS011;13010;-33.424;-70.614;2023-04-01T05:13:11;57.10;;;54.97;;
7348;SDS011;13010;-33.424;-70.614;2023-04-01T05:15:59;62.10;;;59.83;;
7348;SDS011;13010;-33.424;-70.614;2023-04-01T05:18:50;64.30;;;61.92;;
7348;SDS011;13010;-33.424;-70.614;2023-04-01T05:21:38;67.32;;;64.82;;
7348;SDS011;13010;-33.424;-70.614;2023-04-01T05:24:27;52.20;;;50.25;;
7348;SDS011;13010;-33.424;-70.614;2023-04-01T05:27:16;53.08;;;51.08;;
7348;SDS011;13010;-33.424;-70.614;2023-04-01T05:30:06;54.63;;;52.58;;
7348;SDS011;13010;-33.424;-70.614;2023-04-01T05:32:55;52.15;;;50.17;;
7348;SDS011;13010;-33.424;-70.614;2023-04-01T05:35:46;61.72;;;59.45;;
7348;SDS011;13010;-33.424;-70.614;2023-04-01T05:38:35;50.30;;;48.38;;
7348;SDS011;13010;-33.424;-70.614;2023-04-01T05:41:24;47.47;;;45.63;;
7348;SDS011;13010;-33.424;-70.614;2023-04-01T05:44:12;44.67;;;42.95;;
7348;SDS011;13010;-33.424;-70.614;2023-04-01T05:47:02;49.22;;;47.33;;
7348;SDS011;13010;-33.424;-70.614;2023-04-01T05:49:51;50.20;;;48.28;;
7348;SDS011;13010;-33.424;-70.614;2023-04-01T05:52:41;50.33;;;48.35;;
7348;SDS011;13010;-33.424;-70.614;2023-04-01T05:55:31;46.38;;;44.60;;
7348;SDS011;13010;-33.424;-70.614;2023-04-01T05:58:22;52.55;;;50.50;;
7348;SDS011;13010;-33.424;-70.614;2023-04-01T06:01:11;52.05;;;50.05;;
7348;SDS011;13010;-33.424;-70.614;2023-04-01T06:04:00;45.70;;;43.92;;
7348;SDS011;13010;-33.424;-70.614;2023-04-01T06:06:49;62.83;;;60.47;;
7348;SDS011;13010;-33.424;-70.614;2023-04-01T06:09:39;47.47;;;45.65;;
7348;SDS011;13010;-33.424;-70.614;2023-04-01T06:12:36;44.15;;;42.45;;
7348;SDS011;13010;-33.424;-70.614;2023-04-01T06:15:36;104.70;;;96.75;;
7348;SDS011;13010;-33.424;-70.614;2023-04-01T06:25:27;45.13;;;43.35;;
7348;SDS011;13010;-33.424;-70.614;2023-04-01T06:31:44;45.08;;;43.33;;
7348;SDS011;13010;-33.424;-70.614;2023-04-01T06:34:58;43.05;;;41.38;;
7348;SDS011;13010;-33.424;-70.614;2023-04-01T06:41:24;41.40;;;39.75;;
7348;SDS011;13010;-33.424;-70.614;2023-04-01T06:44:24;44.97;;;43.28;;
7348;SDS011;13010;-33.424;-70.614;2023-04-01T06:47:22;46.97;;;45.15;;
7348;SDS011;13010;-33.424;-70.614;2023-04-01T06:50:23;46.35;;;44.55;;
7348;SDS011;13010;-33.424;-70.614;2023-04-01T06:53:17;45.53;;;43.75;;
7348;SDS011;13010;-33.424;-70.614;2023-04-01T06:56:12;43.47;;;41.80;;
7348;SDS011;13010;-33.424;-70.614;2023-04-01T06:59:08;43.80;;;42.13;;
7348;SDS011;13010;-33.424;-70.614;2023-04-01T07:02:02;40.40;;;38.83;;
7348;SDS011;13010;-33.424;-70.614;2023-04-01T07:05:03;50.42;;;48.50;;
7348;SDS011;13010;-33.424;-70.614;2023-04-01T07:07:53;55.05;;;53.00;;
7348;SDS011;13010;-33.424;-70.614;2023-04-01T07:10:45;42.95;;;41.28;;
7348;SDS011;13010;-33.424;-70.614;2023-04-01T07:13:39;43.28;;;41.60;;
7348;SDS011;13010;-33.424;-70.614;2023-04-01T07:16:34;40.67;;;39.08;;
7348;SDS011;13010;-33.424;-70.614;2023-04-01T07:19:27;44.00;;;42.28;;
7348;SDS011;13010;-33.424;-70.614;2023-04-01T07:22:26;41.83;;;40.17;;
7348;SDS011;13010;-33.424;-70.614;2023-04-01T07:25:19;42.75;;;41.05;;
7348;SDS011;13010;-33.424;-70.614;2023-04-01T07:28:11;40.33;;;38.72;;
7348;SDS011;13010;-33.424;-70.614;2023-04-01T07:31:05;42.97;;;41.33;;
7348;SDS011;13010;-33.424;-70.614;2023-04-01T07:34:05;43.28;;;41.58;;
7348;SDS011;13010;-33.424;-70.614;2023-04-01T07:37:02;47.67;;;45.83;;
7348;SDS011;13010;-33.424;-70.614;2023-04-01T07:40:00;50.22;;;48.30;;
7348;SDS011;13010;-33.424;-70.614;2023-04-01T07:43:07;43.15;;;41.47;;
7348;SDS011;13010;-33.424;-70.614;2023-04-01T07:46:11;37.85;;;36.33;;
7348;SDS011;13010;-33.424;-70.614;2023-04-01T07:49:14;37.80;;;36.30;;
7348;SDS011;13010;-33.424;-70.614;2023-04-01T07:52:11;38.20;;;36.70;;
7348;SDS011;13010;-33.424;-70.614;2023-04-01T07:55:06;40.47;;;38.88;;
7348;SDS011;13010;-33.424;-70.614;2023-04-01T07:58:03;41.80;;;40.15;;
7348;SDS011;13010;-33.424;-70.614;2023-04-01T08:01:03;42.95;;;41.25;;
7348;SDS011;13010;-33.424;-70.614;2023-04-01T08:04:06;41.95;;;40.30;;
7348;SDS011;13010;-33.424;-70.614;2023-04-01T08:07:10;44.85;;;43.13;;
7348;SDS011;13010;-33.424;-70.614;2023-04-01T08:10:05;45.67;;;43.90;;
7348;SDS011;13010;-33.424;-70.614;2023-04-01T08:13:00;40.97;;;39.33;;
7348;SDS011;13010;-33.424;-70.614;2023-04-01T08:15:55;40.92;;;39.33;;
7348;SDS011;13010;-33.424;-70.614;2023-04-01T08:18:54;39.90;;;38.35;;
7348;SDS011;13010;-33.424;-70.614;2023-04-01T08:21:53;39.10;;;37.55;;
7348;SDS011;13010;-33.424;-70.614;2023-04-01T08:24:44;39.72;;;38.15;;
7348;SDS011;13010;-33.424;-70.614;2023-04-01T08:27:36;38.33;;;36.83;;
7348;SDS011;13010;-33.424;-70.614;2023-04-01T08:30:30;42.65;;;40.97;;
7348;SDS011;13010;-33.424;-70.614;2023-04-01T08:33:27;41.13;;;39.50;;
7348;SDS011;13010;-33.424;-70.614;2023-04-01T08:36:18;39.28;;;37.72;;
7348;SDS011;13010;-33.424;-70.614;2023-04-01T08:39:14;48.45;;;46.60;;
7348;SDS011;13010;-33.424;-70.614;2023-04-01T08:45:31;34.75;;;33.35;;
7348;SDS011;13010;-33.424;-70.614;2023-04-01T08:55:12;32.70;;;31.38;;
7348;SDS011;13010;-33.424;-70.614;2023-04-01T08:58:21;37.97;;;36.47;;
7348;SDS011;13010;-33.424;-70.614;2023-04-01T09:01:29;36.65;;;35.15;;
7348;SDS011;13010;-33.424;-70.614;2023-04-01T09:04:31;41.05;;;39.17;;
7348;SDS011;13010;-33.424;-70.614;2023-04-01T09:07:49;36.85;;;35.35;;
7348;SDS011;13010;-33.424;-70.614;2023-04-01T09:10:56;45.50;;;43.72;;
7348;SDS011;13010;-33.424;-70.614;2023-04-01T09:13:56;41.33;;;39.72;;
7348;SDS011;13010;-33.424;-70.614;2023-04-01T09:17:12;38.58;;;37.05;;
7348;SDS011;13010;-33.424;-70.614;2023-04-01T09:20:24;34.10;;;32.70;;
7348;SDS011;13010;-33.424;-70.614;2023-04-01T09:23:29;37.50;;;36.03;;
7348;SDS011;13010;-33.424;-70.614;2023-04-01T09:26:37;39.15;;;37.55;;
7348;SDS011;13010;-33.424;-70.614;2023-04-01T09:29:48;37.60;;;36.10;;
7348;SDS011;13010;-33.424;-70.614;2023-04-01T09:33:15;34.40;;;33.00;;
7348;SDS011;13010;-33.424;-70.614;2023-04-01T09:36:45;36.88;;;35.38;;
7348;SDS011;13010;-33.424;-70.614;2023-04-01T09:39:41;33.22;;;31.90;;
7348;SDS011;13010;-33.424;-70.614;2023-04-01T09:42:43;38.13;;;36.63;;
7348;SDS011;13010;-33.424;-70.614;2023-04-01T09:45:53;37.83;;;36.33;;
7348;SDS011;13010;-33.424;-70.614;2023-04-01T09:52:23;38.03;;;36.53;;
7348;SDS011;13010;-33.424;-70.614;2023-04-01T09:55:30;35.88;;;34.45;;
7348;SDS011;13010;-33.424;-70.614;2023-04-01T10:09:19;42.22;;;40.63;;
7348;SDS011;13010;-33.424;-70.614;2023-04-01T10:12:43;38.55;;;37.05;;
7348;SDS011;13010;-33.424;-70.614;2023-04-01T10:15:54;39.88;;;38.28;;
7348;SDS011;13010;-33.424;-70.614;2023-04-01T10:29:32;31.98;;;30.67;;
7348;SDS011;13010;-33.424;-70.614;2023-04-01T10:32:50;32.55;;;31.25;;
7348;SDS011;13010;-33.424;-70.614;2023-04-01T10:43:32;36.08;;;34.65;;
7348;SDS011;13010;-33.424;-70.614;2023-04-01T10:59:51;34.72;;;33.33;;
7348;SDS011;13010;-33.424;-70.614;2023-04-01T11:09:56;38.10;;;36.60;;
7348;SDS011;13010;-33.424;-70.614;2023-04-01T11:20:06;33.08;;;31.75;;
7348;SDS011;13010;-33.424;-70.614;2023-04-01T11:26:41;36.38;;;34.88;;
7348;SDS011;13010;-33.424;-70.614;2023-04-01T11:29:43;38.67;;;37.17;;
7348;SDS011;13010;-33.424;-70.614;2023-04-01T11:32:45;36.53;;;35.03;;
7348;SDS011;13010;-33.424;-70.614;2023-04-01T11:39:01;38.80;;;37.28;;
7348;SDS011;13010;-33.424;-70.614;2023-04-01T11:42:01;48.88;;;46.97;;
7348;SDS011;13010;-33.424;-70.614;2023-04-01T11:45:10;50.90;;;48.95;;
7348;SDS011;13010;-33.424;-70.614;2023-04-01T11:48:24;46.42;;;44.63;;
7348;SDS011;13010;-33.424;-70.614;2023-04-01T11:54:44;45.92;;;44.13;;
7348;SDS011;13010;-33.424;-70.614;2023-04-01T11:57:51;49.45;;;47.58;;
7348;SDS011;13010;-33.424;-70.614;2023-04-01T12:04:36;50.75;;;48.83;;
7348;SDS011;13010;-33.424;-70.614;2023-04-01T12:07:52;60.15;;;57.95;;
7348;SDS011;13010;-33.424;-70.614;2023-04-01T12:10:51;80.40;;;77.50;;
7348;SDS011;13010;-33.424;-70.614;2023-04-01T12:13:48;80.43;;;77.57;;
7348;SDS011;13010;-33.424;-70.614;2023-04-01T12:16:46;77.35;;;74.55;;
7348;SDS011;13010;-33.424;-70.614;2023-04-01T12:19:46;69.68;;;67.13;;
7348;SDS011;13010;-33.424;-70.614;2023-04-01T12:22:43;80.30;;;77.45;;
7348;SDS011;13010;-33.424;-70.614;2023-04-01T12:25:43;86.93;;;83.85;;
7348;SDS011;13010;-33.424;-70.614;2023-04-01T12:28:57;96.18;;;92.88;;
7348;SDS011;13010;-33.424;-70.614;2023-04-01T12:31:57;91.85;;;88.65;;
7348;SDS011;13010;-33.424;-70.614;2023-04-01T12:35:04;109.00;;;105.30;;
7348;SDS011;13010;-33.424;-70.614;2023-04-01T12:38:15;104.90;;;101.38;;
7348;SDS011;13010;-33.424;-70.614;2023-04-01T12:41:17;124.32;;;120.20;;
7348;SDS011;13010;-33.424;-70.614;2023-04-01T12:44:17;118.53;;;114.63;;
7348;SDS011;13010;-33.424;-70.614;2023-04-01T12:47:23;131.27;;;126.97;;
7348;SDS011;13010;-33.424;-70.614;2023-04-01T12:54:02;138.35;;;133.85;;
7348;SDS011;13010;-33.424;-70.614;2023-04-01T12:57:13;127.50;;;123.30;;
7348;SDS011;13010;-33.424;-70.614;2023-04-01T13:00:24;126.28;;;122.13;;
7348;SDS011;13010;-33.424;-70.614;2023-04-01T13:03:35;131.50;;;127.20;;
7348;SDS011;13010;-33.424;-70.614;2023-04-01T13:06:44;125.38;;;121.28;;
7348;SDS011;13010;-33.424;-70.614;2023-04-01T13:09:44;119.82;;;115.88;;
7348;SDS011;13010;-33.424;-70.614;2023-04-01T13:13:00;139.57;;;134.98;;
7348;SDS011;13010;-33.424;-70.614;2023-04-01T13:16:12;126.30;;;122.15;;
7348;SDS011;13010;-33.424;-70.614;2023-04-01T13:19:06;128.77;;;124.55;;
7348;SDS011;13010;-33.424;-70.614;2023-04-01T13:22:02;129.00;;;124.80;;
7348;SDS011;13010;-33.424;-70.614;2023-04-01T13:24:57;138.93;;;134.40;;
7348;SDS011;13010;-33.424;-70.614;2023-04-01T13:27:51;141.70;;;137.10;;
7348;SDS011;13010;-33.424;-70.614;2023-04-01T13:30:47;153.32;;;148.35;;
7348;SDS011;13010;-33.424;-70.614;2023-04-01T13:33:50;153.30;;;148.38;;
7348;SDS011;13010;-33.424;-70.614;2023-04-01T13:36:50;142.63;;;138.00;;
7348;SDS011;13010;-33.424;-70.614;2023-04-01T13:40:02;156.48;;;151.50;;
7348;SDS011;13010;-33.424;-70.614;2023-04-01T13:43:18;163.88;;;158.70;;
7348;SDS011;13010;-33.424;-70.614;2023-04-01T13:46:17;147.13;;;142.38;;
7348;SDS011;13010;-33.424;-70.614;2023-04-01T13:52:37;162.82;;;157.60;;
7348;SDS011;13010;-33.424;-70.614;2023-04-01T13:55:50;155.52;;;150.52;;
7348;SDS011;13010;-33.424;-70.614;2023-04-01T13:58:59;162.88;;;157.68;;
7348;SDS011;13010;-33.424;-70.614;2023-04-01T14:02:24;187.07;;;181.37;;
7348;SDS011;13010;-33.424;-70.614;2023-04-01T14:05:32;177.27;;;171.73;;
7348;SDS011;13010;-33.424;-70.614;2023-04-01T14:08:34;175.20;;;169.73;;
7348;SDS011;13010;-33.424;-70.614;2023-04-01T14:11:36;192.57;;;186.67;;
7348;SDS011;13010;-33.424;-70.614;2023-04-01T14:14:36;233.43;;;226.63;;
7348;SDS011;13010;-33.424;-70.614;2023-04-01T14:17:38;229.63;;;222.93;;
7348;SDS011;13010;-33.424;-70.614;2023-04-01T14:20:40;248.73;;;241.40;;
7348;SDS011;13010;-33.424;-70.614;2023-04-01T14:23:39;262.37;;;254.57;;
7348;SDS011;13010;-33.424;-70.614;2023-04-01T14:26:59;260.47;;;252.70;;
7348;SDS011;13010;-33.424;-70.614;2023-04-01T14:33:33;279.80;;;270.97;;
7348;SDS011;13010;-33.424;-70.614;2023-04-01T14:49:52;323.97;;;313.40;;
7348;SDS011;13010;-33.424;-70.614;2023-04-01T14:52:55;345.10;;;333.70;;
7348;SDS011;13010;-33.424;-70.614;2023-04-01T14:55:50;353.07;;;341.20;;
7348;SDS011;13010;-33.424;-70.614;2023-04-01T14:58:44;385.97;;;373.37;;
7348;SDS011;13010;-33.424;-70.614;2023-04-01T15:01:36;386.47;;;373.77;;
7348;SDS011;13010;-33.424;-70.614;2023-04-01T15:07:45;370.10;;;357.97;;
7348;SDS011;13010;-33.424;-70.614;2023-04-01T15:11:13;395.43;;;382.03;;
7348;SDS011;13010;-33.424;-70.614;2023-04-01T15:14:19;391.33;;;378.53;;
7348;SDS011;13010;-33.424;-70.614;2023-04-01T15:17:35;420.73;;;407.13;;
7348;SDS011;13010;-33.424;-70.614;2023-04-01T15:20:52;389.90;;;376.93;;
7348;SDS011;13010;-33.424;-70.614;2023-04-01T15:23:56;425.57;;;411.13;;
7348;SDS011;13010;-33.424;-70.614;2023-04-01T15:26:57;424.07;;;409.63;;
7348;SDS011;13010;-33.424;-70.614;2023-04-01T15:30:01;400.40;;;386.83;;
7348;SDS011;13010;-33.424;-70.614;2023-04-01T15:33:06;405.33;;;391.40;;
7348;SDS011;13010;-33.424;-70.614;2023-04-01T15:36:18;388.00;;;374.70;;
7348;SDS011;13010;-33.424;-70.614;2023-04-01T15:39:24;434.77;;;419.73;;
7348;SDS011;13010;-33.424;-70.614;2023-04-01T15:42:30;405.03;;;391.37;;
7348;SDS011;13010;-33.424;-70.614;2023-04-01T15:45:38;410.80;;;397.13;;
7348;SDS011;13010;-33.424;-70.614;2023-04-01T15:48:46;419.90;;;405.37;;
7348;SDS011;13010;-33.424;-70.614;2023-04-01T15:58:25;428.20;;;413.23;;
7348;SDS011;13010;-33.424;-70.614;2023-04-01T16:01:26;420.23;;;405.43;;
7348;SDS011;13010;-33.424;-70.614;2023-04-01T16:04:30;434.17;;;418.80;;
7348;SDS011;13010;-33.424;-70.614;2023-04-01T16:11:03;407.70;;;394.63;;
7348;SDS011;13010;-33.424;-70.614;2023-04-01T16:14:07;385.40;;;372.67;;
7348;SDS011;13010;-33.424;-70.614;2023-04-01T16:17:06;423.40;;;409.23;;
7348;SDS011;13010;-33.424;-70.614;2023-04-01T16:20:12;423.50;;;408.70;;
7348;SDS011;13010;-33.424;-70.614;2023-04-01T16:23:10;468.57;;;452.30;;
7348;SDS011;13010;-33.424;-70.614;2023-04-01T16:26:06;451.33;;;435.33;;
7348;SDS011;13010;-33.424;-70.614;2023-04-01T16:29:04;451.97;;;436.40;;
7348;SDS011;13010;-33.424;-70.614;2023-04-01T16:32:02;426.00;;;411.43;;
7348;SDS011;13010;-33.424;-70.614;2023-04-01T16:35:17;431.50;;;417.50;;
7348;SDS011;13010;-33.424;-70.614;2023-04-01T16:38:18;427.60;;;414.20;;
7348;SDS011;13010;-33.424;-70.614;2023-04-01T16:41:14;406.50;;;394.03;;
7348;SDS011;13010;-33.424;-70.614;2023-04-01T16:44:14;307.07;;;298.13;;
7348;SDS011;13010;-33.424;-70.614;2023-04-01T16:47:08;223.63;;;217.13;;
7348;SDS011;13010;-33.424;-70.614;2023-04-01T16:50:05;180.60;;;175.10;;
7348;SDS011;13010;-33.424;-70.614;2023-04-01T16:53:01;167.10;;;161.93;;
7348;SDS011;13010;-33.424;-70.614;2023-04-01T16:56:03;157.73;;;152.77;;
7348;SDS011;13010;-33.424;-70.614;2023-04-01T16:58:59;165.53;;;160.33;;
7348;SDS011;13010;-33.424;-70.614;2023-04-01T17:01:57;152.50;;;147.63;;
7348;SDS011;13010;-33.424;-70.614;2023-04-01T17:04:58;153.27;;;148.40;;
7348;SDS011;13010;-33.424;-70.614;2023-04-01T17:07:55;144.03;;;139.43;;
7348;SDS011;13010;-33.424;-70.614;2023-04-01T17:10:52;149.10;;;144.33;;
7348;SDS011;13010;-33.424;-70.614;2023-04-01T17:13:46;146.10;;;141.40;;
7348;SDS011;13010;-33.424;-70.614;2023-04-01T17:20:11;137.30;;;132.90;;
7348;SDS011;13010;-33.424;-70.614;2023-04-01T17:23:09;140.65;;;136.13;;
7348;SDS011;13010;-33.424;-70.614;2023-04-01T17:26:11;131.13;;;126.87;;
7348;SDS011;13010;-33.424;-70.614;2023-04-01T17:29:10;142.20;;;137.60;;
7348;SDS011;13010;-33.424;-70.614;2023-04-01T17:32:09;135.13;;;130.77;;
7348;SDS011;13010;-33.424;-70.614;2023-04-01T17:35:04;147.77;;;142.97;;
7348;SDS011;13010;-33.424;-70.614;2023-04-01T17:38:02;128.53;;;124.40;;
7348;SDS011;13010;-33.424;-70.614;2023-04-01T17:41:02;137.40;;;132.97;;
7348;SDS011;13010;-33.424;-70.614;2023-04-01T17:44:03;131.30;;;127.07;;
7348;SDS011;13010;-33.424;-70.614;2023-04-01T17:47:10;137.43;;;133.00;;
7348;SDS011;13010;-33.424;-70.614;2023-04-01T17:50:23;140.67;;;136.17;;
7348;SDS011;13010;-33.424;-70.614;2023-04-01T17:53:18;133.03;;;128.73;;
7348;SDS011;13010;-33.424;-70.614;2023-04-01T17:56:27;155.73;;;150.67;;
7348;SDS011;13010;-33.424;-70.614;2023-04-01T17:59:27;168.20;;;162.87;;
7348;SDS011;13010;-33.424;-70.614;2023-04-01T18:02:27;176.83;;;171.33;;
7348;SDS011;13010;-33.424;-70.614;2023-04-01T18:05:35;188.47;;;182.67;;
7348;SDS011;13010;-33.424;-70.614;2023-04-01T18:08:47;211.30;;;204.90;;
7348;SDS011;13010;-33.424;-70.614;2023-04-01T18:11:47;217.90;;;211.37;;
7348;SDS011;13010;-33.424;-70.614;2023-04-01T18:14:51;212.07;;;205.60;;
7348;SDS011;13010;-33.424;-70.614;2023-04-01T18:17:58;234.77;;;227.93;;
7348;SDS011;13010;-33.424;-70.614;2023-04-01T18:20:58;208.97;;;202.63;;
7348;SDS011;13010;-33.424;-70.614;2023-04-01T18:23:54;193.33;;;187.50;;
7348;SDS011;13010;-33.424;-70.614;2023-04-01T18:26:47;189.40;;;183.60;;
7348;SDS011;13010;-33.424;-70.614;2023-04-01T18:29:47;156.20;;;151.30;;
7348;SDS011;13010;-33.424;-70.614;2023-04-01T18:32:43;160.07;;;155.03;;
7348;SDS011;13010;-33.424;-70.614;2023-04-01T18:35:47;143.70;;;139.10;;
7348;SDS011;13010;-33.424;-70.614;2023-04-01T18:38:40;138.70;;;134.23;;
7348;SDS011;13010;-33.424;-70.614;2023-04-01T18:41:40;133.30;;;129.00;;
7348;SDS011;13010;-33.424;-70.614;2023-04-01T18:44:43;138.43;;;133.97;;
7348;SDS011;13010;-33.424;-70.614;2023-04-01T18:47:38;140.32;;;135.82;;
7348;SDS011;13010;-33.424;-70.614;2023-04-01T18:50:34;133.93;;;129.60;;
7348;SDS011;13010;-33.424;-70.614;2023-04-01T18:53:34;130.30;;;126.10;;
7348;SDS011;13010;-33.424;-70.614;2023-04-01T18:56:32;143.32;;;138.63;;